sensor_id;sensor_type;location;lat;lon;timestamp;P1;durP1;ratioP1;P2;durP2;ratioP2
34673;SDS011;20879;55.668;37.858;2022-12-22T00:01:21;13.02;;;8.68;;
34673;SDS011;20879;55.668;37.858;2022-12-22T00:04:04;13.98;;;8.75;;
34673;SDS011;20879;55.668;37.858;2022-12-22T00:06:49;13.60;;;9.43;;
34673;SDS011;20879;55.668;37.858;2022-12-22T00:09:36;16.50;;;9.38;;
34673;SDS011;20879;55.668;37.858;2022-12-22T00:15:02;12.73;;;8.23;;
34673;SDS011;20879;55.668;37.858;2022-12-22T00:17:46;10.52;;;7.65;;
34673;SDS011;20879;55.668;37.858;2022-12-22T00:20:28;10.63;;;7.38;;
34673;SDS011;20879;55.668;37.858;2022-12-22T00:23:11;10.27;;;6.95;;
34673;SDS011;20879;55.668;37.858;2022-12-22T00:26:00;4.45;;;3.13;;
34673;SDS011;20879;55.668;37.858;2022-12-22T00:28:48;7.93;;;6.25;;
34673;SDS011;20879;55.668;37.858;2022-12-22T00:34:20;6.07;;;4.80;;
34673;SDS011;20879;55.668;37.858;2022-12-22T00:37:09;5.90;;;4.80;;
34673;SDS011;20879;55.668;37.858;2022-12-22T00:39:53;5.25;;;4.13;;
34673;SDS011;20879;55.668;37.858;2022-12-22T00:42:35;7.60;;;3.85;;
34673;SDS011;20879;55.668;37.858;2022-12-22T00:48:01;3.47;;;2.60;;
34673;SDS011;20879;55.668;37.858;2022-12-22T00:50:45;4.22;;;2.55;;
34673;SDS011;20879;55.668;37.858;2022-12-22T00:53:28;4.10;;;2.28;;
34673;SDS011;20879;55.668;37.858;2022-12-22T00:56:11;3.80;;;2.97;;
34673;SDS011;20879;55.668;37.858;2022-12-22T00:58:58;4.32;;;2.80;;
34673;SDS011;20879;55.668;37.858;2022-12-22T01:01:42;5.90;;;2.30;;
34673;SDS011;20879;55.668;37.858;2022-12-22T01:04:34;3.10;;;2.30;;
34673;SDS011;20879;55.668;37.858;2022-12-22T01:07:16;2.97;;;2.38;;
34673;SDS011;20879;55.668;37.858;2022-12-22T01:10:02;6.15;;;2.33;;
34673;SDS011;20879;55.668;37.858;2022-12-22T01:12:45;3.05;;;2.50;;
34673;SDS011;20879;55.668;37.858;2022-12-22T01:15:27;2.72;;;2.08;;
34673;SDS011;20879;55.668;37.858;2022-12-22T01:18:16;3.22;;;2.22;;
34673;SDS011;20879;55.668;37.858;2022-12-22T01:21:01;2.92;;;2.25;;
34673;SDS011;20879;55.668;37.858;2022-12-22T01:23:44;2.55;;;2.17;;
34673;SDS011;20879;55.668;37.858;2022-12-22T01:26:32;2.80;;;2.15;;
34673;SDS011;20879;55.668;37.858;2022-12-22T01:29:14;3.95;;;2.28;;
34673;SDS011;20879;55.668;37.858;2022-12-22T01:34:48;2.13;;;1.92;;
34673;SDS011;20879;55.668;37.858;2022-12-22T01:37:32;3.17;;;2.00;;
34673;SDS011;20879;55.668;37.858;2022-12-22T01:40:15;3.20;;;1.70;;
34673;SDS011;20879;55.668;37.858;2022-12-22T01:42:59;2.33;;;1.60;;
34673;SDS011;20879;55.668;37.858;2022-12-22T01:45:51;1.52;;;1.42;;
34673;SDS011;20879;55.668;37.858;2022-12-22T01:48:38;3.35;;;1.30;;
34673;SDS011;20879;55.668;37.858;2022-12-22T01:54:07;2.60;;;1.48;;
34673;SDS011;20879;55.668;37.858;2022-12-22T01:57:06;3.45;;;1.35;;
34673;SDS011;20879;55.668;37.858;2022-12-22T01:59:48;3.10;;;1.48;;
34673;SDS011;20879;55.668;37.858;2022-12-22T02:02:37;3.47;;;1.50;;
34673;SDS011;20879;55.668;37.858;2022-12-22T02:05:20;1.42;;;1.30;;
34673;SDS011;20879;55.668;37.858;2022-12-22T02:08:13;3.47;;;1.65;;
34673;SDS011;20879;55.668;37.858;2022-12-22T02:11:08;2.95;;;1.55;;
34673;SDS011;20879;55.668;37.858;2022-12-22T02:14:04;1.98;;;1.50;;
34673;SDS011;20879;55.668;37.858;2022-12-22T02:17:03;4.50;;;1.58;;
34673;SDS011;20879;55.668;37.858;2022-12-22T02:20:09;3.20;;;1.70;;
34673;SDS011;20879;55.668;37.858;2022-12-22T02:23:08;5.55;;;1.75;;
34673;SDS011;20879;55.668;37.858;2022-12-22T02:25:59;1.95;;;1.48;;
34673;SDS011;20879;55.668;37.858;2022-12-22T02:28:50;3.20;;;1.70;;
34673;SDS011;20879;55.668;37.858;2022-12-22T02:31:34;2.67;;;1.40;;
34673;SDS011;20879;55.668;37.858;2022-12-22T02:34:22;2.40;;;1.60;;
34673;SDS011;20879;55.668;37.858;2022-12-22T02:37:07;3.72;;;1.60;;
34673;SDS011;20879;55.668;37.858;2022-12-22T02:39:56;2.92;;;1.60;;
34673;SDS011;20879;55.668;37.858;2022-12-22T02:42:45;4.38;;;1.80;;
34673;SDS011;20879;55.668;37.858;2022-12-22T02:45:45;2.42;;;1.80;;
34673;SDS011;20879;55.668;37.858;2022-12-22T02:48:39;3.83;;;1.70;;
34673;SDS011;20879;55.668;37.858;2022-12-22T02:51:38;3.47;;;2.00;;
34673;SDS011;20879;55.668;37.858;2022-12-22T02:54:29;2.88;;;1.85;;
34673;SDS011;20879;55.668;37.858;2022-12-22T02:57:14;3.55;;;1.98;;
34673;SDS011;20879;55.668;37.858;2022-12-22T02:59:57;4.43;;;2.70;;
34673;SDS011;20879;55.668;37.858;2022-12-22T03:02:41;7.05;;;2.08;;
34673;SDS011;20879;55.668;37.858;2022-12-22T03:05:24;5.82;;;2.20;;
34673;SDS011;20879;55.668;37.858;2022-12-22T03:08:11;4.47;;;2.58;;
34673;SDS011;20879;55.668;37.858;2022-12-22T03:13:35;1.80;;;1.65;;
34673;SDS011;20879;55.668;37.858;2022-12-22T03:16:20;4.40;;;2.20;;
34673;SDS011;20879;55.668;37.858;2022-12-22T03:19:10;4.70;;;2.30;;
34673;SDS011;20879;55.668;37.858;2022-12-22T03:21:52;3.67;;;2.17;;
34673;SDS011;20879;55.668;37.858;2022-12-22T03:24:34;4.13;;;2.38;;
34673;SDS011;20879;55.668;37.858;2022-12-22T03:27:21;2.63;;;2.10;;
34673;SDS011;20879;55.668;37.858;2022-12-22T03:29:51;4.18;;;2.38;;
34673;SDS011;20879;55.668;37.858;2022-12-22T03:32:25;3.15;;;2.15;;
34673;SDS011;20879;55.668;37.858;2022-12-22T03:35:02;3.83;;;2.38;;
34673;SDS011;20879;55.668;37.858;2022-12-22T03:37:31;5.70;;;3.08;;
34673;SDS011;20879;55.668;37.858;2022-12-22T03:40:00;4.35;;;2.80;;
34673;SDS011;20879;55.668;37.858;2022-12-22T03:42:30;3.38;;;2.60;;
34673;SDS011;20879;55.668;37.858;2022-12-22T03:45:17;8.90;;;3.17;;
34673;SDS011;20879;55.668;37.858;2022-12-22T03:50:30;4.95;;;2.53;;
34673;SDS011;20879;55.668;37.858;2022-12-22T03:55:28;6.88;;;3.05;;
34673;SDS011;20879;55.668;37.858;2022-12-22T03:57:58;7.75;;;3.60;;
34673;SDS011;20879;55.668;37.858;2022-12-22T04:00:27;4.80;;;2.60;;
34673;SDS011;20879;55.668;37.858;2022-12-22T04:03:01;7.35;;;3.25;;
34673;SDS011;20879;55.668;37.858;2022-12-22T04:05:33;8.10;;;3.58;;
34673;SDS011;20879;55.668;37.858;2022-12-22T04:08:02;7.10;;;3.25;;
34673;SDS011;20879;55.668;37.858;2022-12-22T04:10:31;6.38;;;3.10;;
34673;SDS011;20879;55.668;37.858;2022-12-22T04:13:14;6.00;;;3.47;;
34673;SDS011;20879;55.668;37.858;2022-12-22T04:15:48;5.07;;;2.65;;
34673;SDS011;20879;55.668;37.858;2022-12-22T04:18:17;8.65;;;3.33;;
34673;SDS011;20879;55.668;37.858;2022-12-22T04:20:49;7.05;;;3.70;;
34673;SDS011;20879;55.668;37.858;2022-12-22T04:23:29;5.18;;;3.60;;
34673;SDS011;20879;55.668;37.858;2022-12-22T04:25:59;4.80;;;2.97;;
34673;SDS011;20879;55.668;37.858;2022-12-22T04:28:28;6.93;;;3.83;;
34673;SDS011;20879;55.668;37.858;2022-12-22T04:30:57;5.57;;;3.28;;
34673;SDS011;20879;55.668;37.858;2022-12-22T04:33:27;8.85;;;4.05;;
34673;SDS011;20879;55.668;37.858;2022-12-22T04:35:58;7.90;;;3.90;;
34673;SDS011;20879;55.668;37.858;2022-12-22T04:38:27;6.43;;;3.35;;
34673;SDS011;20879;55.668;37.858;2022-12-22T04:40:56;3.47;;;2.40;;
34673;SDS011;20879;55.668;37.858;2022-12-22T04:43:31;7.00;;;4.10;;
34673;SDS011;20879;55.668;37.858;2022-12-22T04:46:00;5.55;;;3.00;;
34673;SDS011;20879;55.668;37.858;2022-12-22T04:48:34;4.55;;;3.22;;
34673;SDS011;20879;55.668;37.858;2022-12-22T04:51:06;7.65;;;3.60;;
34673;SDS011;20879;55.668;37.858;2022-12-22T04:53:41;7.65;;;4.18;;
34673;SDS011;20879;55.668;37.858;2022-12-22T04:56:10;6.40;;;3.35;;
34673;SDS011;20879;55.668;37.858;2022-12-22T04:58:39;9.00;;;4.93;;
34673;SDS011;20879;55.668;37.858;2022-12-22T05:01:09;7.35;;;4.07;;
34673;SDS011;20879;55.668;37.858;2022-12-22T05:03:45;7.05;;;4.45;;
34673;SDS011;20879;55.668;37.858;2022-12-22T05:06:16;5.95;;;4.00;;
34673;SDS011;20879;55.668;37.858;2022-12-22T05:08:51;9.65;;;4.13;;
34673;SDS011;20879;55.668;37.858;2022-12-22T05:11:20;9.43;;;5.18;;
34673;SDS011;20879;55.668;37.858;2022-12-22T05:13:49;13.10;;;5.63;;
34673;SDS011;20879;55.668;37.858;2022-12-22T05:16:32;9.23;;;4.95;;
34673;SDS011;20879;55.668;37.858;2022-12-22T05:19:02;7.28;;;4.45;;
34673;SDS011;20879;55.668;37.858;2022-12-22T05:21:43;8.23;;;4.88;;
34673;SDS011;20879;55.668;37.858;2022-12-22T05:24:13;9.70;;;5.20;;
34673;SDS011;20879;55.668;37.858;2022-12-22T05:26:42;8.05;;;4.53;;
34673;SDS011;20879;55.668;37.858;2022-12-22T05:29:11;7.78;;;5.35;;
34673;SDS011;20879;55.668;37.858;2022-12-22T05:31:40;7.55;;;5.13;;
34673;SDS011;20879;55.668;37.858;2022-12-22T05:34:15;9.55;;;5.00;;
34673;SDS011;20879;55.668;37.858;2022-12-22T05:36:51;5.43;;;3.85;;
34673;SDS011;20879;55.668;37.858;2022-12-22T05:39:20;8.75;;;5.30;;
34673;SDS011;20879;55.668;37.858;2022-12-22T05:41:49;8.55;;;5.13;;
34673;SDS011;20879;55.668;37.858;2022-12-22T05:44:18;6.45;;;4.32;;
34673;SDS011;20879;55.668;37.858;2022-12-22T05:46:48;9.07;;;5.82;;
34673;SDS011;20879;55.668;37.858;2022-12-22T05:49:18;9.18;;;6.25;;
34673;SDS011;20879;55.668;37.858;2022-12-22T05:51:48;10.48;;;6.10;;
34673;SDS011;20879;55.668;37.858;2022-12-22T05:54:21;6.13;;;3.58;;
34673;SDS011;20879;55.668;37.858;2022-12-22T05:56:56;11.77;;;6.22;;
34673;SDS011;20879;55.668;37.858;2022-12-22T05:59:30;8.45;;;5.93;;
34673;SDS011;20879;55.668;37.858;2022-12-22T06:01:59;11.15;;;6.68;;
34673;SDS011;20879;55.668;37.858;2022-12-22T06:04:29;11.00;;;6.47;;
34673;SDS011;20879;55.668;37.858;2022-12-22T06:06:58;10.35;;;5.93;;
34673;SDS011;20879;55.668;37.858;2022-12-22T06:09:30;10.25;;;6.80;;
34673;SDS011;20879;55.668;37.858;2022-12-22T06:11:59;10.57;;;6.88;;
34673;SDS011;20879;55.668;37.858;2022-12-22T06:14:33;9.88;;;6.78;;
34673;SDS011;20879;55.668;37.858;2022-12-22T06:17:05;8.10;;;5.28;;
34673;SDS011;20879;55.668;37.858;2022-12-22T06:19:34;10.35;;;6.68;;
34673;SDS011;20879;55.668;37.858;2022-12-22T06:24:37;11.65;;;5.78;;
34673;SDS011;20879;55.668;37.858;2022-12-22T06:27:07;8.93;;;6.90;;
34673;SDS011;20879;55.668;37.858;2022-12-22T06:29:37;10.52;;;6.88;;
34673;SDS011;20879;55.668;37.858;2022-12-22T06:32:07;7.47;;;5.15;;
34673;SDS011;20879;55.668;37.858;2022-12-22T06:34:36;8.70;;;6.40;;
34673;SDS011;20879;55.668;37.858;2022-12-22T06:37:08;9.50;;;5.93;;
34673;SDS011;20879;55.668;37.858;2022-12-22T06:39:40;8.98;;;6.15;;
34673;SDS011;20879;55.668;37.858;2022-12-22T06:42:09;9.20;;;4.75;;
34673;SDS011;20879;55.668;37.858;2022-12-22T06:44:53;10.82;;;6.57;;
34673;SDS011;20879;55.668;37.858;2022-12-22T06:47:22;10.48;;;6.88;;
34673;SDS011;20879;55.668;37.858;2022-12-22T06:49:52;11.70;;;7.32;;
34673;SDS011;20879;55.668;37.858;2022-12-22T06:52:21;8.18;;;5.43;;
34673;SDS011;20879;55.668;37.858;2022-12-22T06:54:52;11.85;;;7.20;;
34673;SDS011;20879;55.668;37.858;2022-12-22T06:57:22;8.88;;;6.47;;
34673;SDS011;20879;55.668;37.858;2022-12-22T06:59:56;9.85;;;6.80;;
34673;SDS011;20879;55.668;37.858;2022-12-22T07:02:25;10.45;;;6.70;;
34673;SDS011;20879;55.668;37.858;2022-12-22T07:04:55;12.07;;;7.15;;
34673;SDS011;20879;55.668;37.858;2022-12-22T07:07:24;7.55;;;4.88;;
34673;SDS011;20879;55.668;37.858;2022-12-22T07:10:05;11.23;;;7.13;;
34673;SDS011;20879;55.668;37.858;2022-12-22T07:12:45;10.02;;;6.88;;
34673;SDS011;20879;55.668;37.858;2022-12-22T07:15:14;13.98;;;6.53;;
34673;SDS011;20879;55.668;37.858;2022-12-22T07:17:44;11.02;;;6.95;;
34673;SDS011;20879;55.668;37.858;2022-12-22T07:20:13;9.18;;;5.88;;
34673;SDS011;20879;55.668;37.858;2022-12-22T07:22:42;9.52;;;6.68;;
34673;SDS011;20879;55.668;37.858;2022-12-22T07:25:13;9.45;;;6.40;;
34673;SDS011;20879;55.668;37.858;2022-12-22T07:27:42;11.63;;;7.38;;
34673;SDS011;20879;55.668;37.858;2022-12-22T07:30:12;10.00;;;6.72;;
34673;SDS011;20879;55.668;37.858;2022-12-22T07:32:41;10.00;;;6.78;;
34673;SDS011;20879;55.668;37.858;2022-12-22T07:35:18;11.93;;;7.15;;
34673;SDS011;20879;55.668;37.858;2022-12-22T07:37:47;10.57;;;6.75;;
34673;SDS011;20879;55.668;37.858;2022-12-22T07:40:19;10.63;;;6.75;;
34673;SDS011;20879;55.668;37.858;2022-12-22T07:42:48;10.05;;;6.38;;
34673;SDS011;20879;55.668;37.858;2022-12-22T07:45:18;9.55;;;6.50;;
34673;SDS011;20879;55.668;37.858;2022-12-22T07:47:47;12.95;;;7.53;;
34673;SDS011;20879;55.668;37.858;2022-12-22T07:50:17;12.00;;;7.50;;
34673;SDS011;20879;55.668;37.858;2022-12-22T07:52:53;10.30;;;7.13;;
34673;SDS011;20879;55.668;37.858;2022-12-22T07:55:26;10.77;;;6.75;;
34673;SDS011;20879;55.668;37.858;2022-12-22T07:57:57;14.35;;;7.93;;
34673;SDS011;20879;55.668;37.858;2022-12-22T08:00:26;10.35;;;6.20;;
34673;SDS011;20879;55.668;37.858;2022-12-22T08:02:56;10.98;;;7.53;;
34673;SDS011;20879;55.668;37.858;2022-12-22T08:05:27;11.05;;;7.38;;
34673;SDS011;20879;55.668;37.858;2022-12-22T08:08:01;12.75;;;7.32;;
34673;SDS011;20879;55.668;37.858;2022-12-22T08:10:32;9.57;;;7.18;;
34673;SDS011;20879;55.668;37.858;2022-12-22T08:13:01;9.13;;;7.00;;
34673;SDS011;20879;55.668;37.858;2022-12-22T08:15:36;12.77;;;7.50;;
34673;SDS011;20879;55.668;37.858;2022-12-22T08:18:05;9.95;;;7.35;;
34673;SDS011;20879;55.668;37.858;2022-12-22T08:20:34;10.63;;;7.20;;
34673;SDS011;20879;55.668;37.858;2022-12-22T08:23:04;11.30;;;7.40;;
34673;SDS011;20879;55.668;37.858;2022-12-22T08:25:35;10.25;;;7.40;;
34673;SDS011;20879;55.668;37.858;2022-12-22T08:28:04;11.13;;;7.25;;
34673;SDS011;20879;55.668;37.858;2022-12-22T08:30:34;10.55;;;6.88;;
34673;SDS011;20879;55.668;37.858;2022-12-22T08:35:50;12.50;;;7.68;;
34673;SDS011;20879;55.668;37.858;2022-12-22T08:38:19;10.27;;;7.43;;
34673;SDS011;20879;55.668;37.858;2022-12-22T08:40:51;11.57;;;7.78;;
34673;SDS011;20879;55.668;37.858;2022-12-22T08:43:33;10.20;;;5.90;;
34673;SDS011;20879;55.668;37.858;2022-12-22T08:46:07;11.60;;;7.55;;
34673;SDS011;20879;55.668;37.858;2022-12-22T08:48:36;11.70;;;7.80;;
34673;SDS011;20879;55.668;37.858;2022-12-22T08:51:06;12.13;;;7.88;;
34673;SDS011;20879;55.668;37.858;2022-12-22T08:53:35;12.90;;;8.57;;
34673;SDS011;20879;55.668;37.858;2022-12-22T08:56:31;11.98;;;8.35;;
34673;SDS011;20879;55.668;37.858;2022-12-22T08:59:06;12.07;;;8.07;;
34673;SDS011;20879;55.668;37.858;2022-12-22T09:01:36;11.25;;;7.13;;
34673;SDS011;20879;55.668;37.858;2022-12-22T09:04:08;13.70;;;8.45;;
34673;SDS011;20879;55.668;37.858;2022-12-22T09:06:37;12.13;;;7.53;;
34673;SDS011;20879;55.668;37.858;2022-12-22T09:09:11;12.68;;;7.95;;
34673;SDS011;20879;55.668;37.858;2022-12-22T09:11:44;15.75;;;7.95;;
34673;SDS011;20879;55.668;37.858;2022-12-22T09:14:14;12.43;;;7.63;;
34673;SDS011;20879;55.668;37.858;2022-12-22T09:16:43;11.07;;;7.55;;
34673;SDS011;20879;55.668;37.858;2022-12-22T09:19:17;12.10;;;8.25;;
34673;SDS011;20879;55.668;37.858;2022-12-22T09:21:47;13.35;;;8.77;;
34673;SDS011;20879;55.668;37.858;2022-12-22T09:24:16;11.73;;;8.70;;
34673;SDS011;20879;55.668;37.858;2022-12-22T09:26:52;15.65;;;9.20;;
34673;SDS011;20879;55.668;37.858;2022-12-22T09:29:22;11.38;;;7.57;;
34673;SDS011;20879;55.668;37.858;2022-12-22T09:31:54;12.55;;;8.02;;
34673;SDS011;20879;55.668;37.858;2022-12-22T09:34:23;14.05;;;8.77;;
34673;SDS011;20879;55.668;37.858;2022-12-22T09:39:38;14.80;;;8.48;;
34673;SDS011;20879;55.668;37.858;2022-12-22T09:42:11;13.30;;;8.07;;
34673;SDS011;20879;55.668;37.858;2022-12-22T09:44:45;12.93;;;9.48;;
34673;SDS011;20879;55.668;37.858;2022-12-22T09:47:19;12.50;;;8.20;;
34673;SDS011;20879;55.668;37.858;2022-12-22T09:49:52;11.38;;;7.93;;
34673;SDS011;20879;55.668;37.858;2022-12-22T09:52:29;11.65;;;7.53;;
34673;SDS011;20879;55.668;37.858;2022-12-22T09:55:12;12.38;;;8.57;;
34673;SDS011;20879;55.668;37.858;2022-12-22T09:57:48;12.10;;;8.40;;
34673;SDS011;20879;55.668;37.858;2022-12-22T10:00:19;15.07;;;9.18;;
34673;SDS011;20879;55.668;37.858;2022-12-22T10:02:54;9.82;;;5.88;;
34673;SDS011;20879;55.668;37.858;2022-12-22T10:05:30;16.20;;;9.55;;
34673;SDS011;20879;55.668;37.858;2022-12-22T10:08:17;13.95;;;8.52;;
34673;SDS011;20879;55.668;37.858;2022-12-22T10:10:53;16.00;;;10.02;;
34673;SDS011;20879;55.668;37.858;2022-12-22T10:13:30;14.82;;;9.15;;
34673;SDS011;20879;55.668;37.858;2022-12-22T10:16:00;16.08;;;9.55;;
34673;SDS011;20879;55.668;37.858;2022-12-22T10:18:29;16.05;;;9.65;;
34673;SDS011;20879;55.668;37.858;2022-12-22T10:21:07;12.37;;;7.70;;
34673;SDS011;20879;55.668;37.858;2022-12-22T10:23:46;15.48;;;10.15;;
34673;SDS011;20879;55.668;37.858;2022-12-22T10:26:17;15.88;;;9.35;;
34673;SDS011;20879;55.668;37.858;2022-12-22T10:28:59;16.45;;;10.38;;
34673;SDS011;20879;55.668;37.858;2022-12-22T10:31:53;13.65;;;9.02;;
34673;SDS011;20879;55.668;37.858;2022-12-22T10:34:31;14.80;;;9.60;;
34673;SDS011;20879;55.668;37.858;2022-12-22T10:37:05;12.27;;;7.45;;
34673;SDS011;20879;55.668;37.858;2022-12-22T10:39:35;14.40;;;8.38;;
34673;SDS011;20879;55.668;37.858;2022-12-22T10:42:06;18.13;;;9.90;;
34673;SDS011;20879;55.668;37.858;2022-12-22T10:44:46;15.10;;;9.45;;
34673;SDS011;20879;55.668;37.858;2022-12-22T10:47:22;15.57;;;10.48;;
34673;SDS011;20879;55.668;37.858;2022-12-22T10:50:02;19.77;;;10.27;;
34673;SDS011;20879;55.668;37.858;2022-12-22T10:52:33;17.48;;;10.43;;
34673;SDS011;20879;55.668;37.858;2022-12-22T10:57:51;16.13;;;10.40;;
34673;SDS011;20879;55.668;37.858;2022-12-22T11:00:36;15.00;;;10.40;;
34673;SDS011;20879;55.668;37.858;2022-12-22T11:03:08;17.85;;;10.35;;
34673;SDS011;20879;55.668;37.858;2022-12-22T11:05:53;15.27;;;9.95;;
34673;SDS011;20879;55.668;37.858;2022-12-22T11:08:22;16.65;;;10.43;;
34673;SDS011;20879;55.668;37.858;2022-12-22T11:10:53;16.15;;;10.43;;
34673;SDS011;20879;55.668;37.858;2022-12-22T11:13:46;15.80;;;10.35;;
34673;SDS011;20879;55.668;37.858;2022-12-22T11:16:34;17.80;;;10.85;;
34673;SDS011;20879;55.668;37.858;2022-12-22T11:22:15;17.20;;;9.63;;
34673;SDS011;20879;55.668;37.858;2022-12-22T11:24:55;18.73;;;11.52;;
34673;SDS011;20879;55.668;37.858;2022-12-22T11:27:36;17.58;;;10.70;;
34673;SDS011;20879;55.668;37.858;2022-12-22T11:30:12;17.15;;;10.10;;
34673;SDS011;20879;55.668;37.858;2022-12-22T11:33:08;18.70;;;11.13;;
34673;SDS011;20879;55.668;37.858;2022-12-22T11:35:50;18.88;;;10.77;;
34673;SDS011;20879;55.668;37.858;2022-12-22T11:38:37;16.88;;;9.80;;
34673;SDS011;20879;55.668;37.858;2022-12-22T11:41:20;17.27;;;10.07;;
34673;SDS011;20879;55.668;37.858;2022-12-22T11:44:18;15.80;;;10.07;;
34673;SDS011;20879;55.668;37.858;2022-12-22T11:47:15;18.08;;;10.43;;
34673;SDS011;20879;55.668;37.858;2022-12-22T11:50:01;17.52;;;10.73;;
34673;SDS011;20879;55.668;37.858;2022-12-22T11:53:06;15.57;;;9.48;;
34673;SDS011;20879;55.668;37.858;2022-12-22T11:55:51;18.13;;;10.98;;
34673;SDS011;20879;55.668;37.858;2022-12-22T11:58:37;16.92;;;10.55;;
34673;SDS011;20879;55.668;37.858;2022-12-22T12:01:19;15.85;;;10.20;;
34673;SDS011;20879;55.668;37.858;2022-12-22T12:04:08;14.27;;;8.40;;
34673;SDS011;20879;55.668;37.858;2022-12-22T12:07:01;15.75;;;9.63;;
34673;SDS011;20879;55.668;37.858;2022-12-22T12:09:50;19.48;;;10.45;;
34673;SDS011;20879;55.668;37.858;2022-12-22T12:12:31;18.30;;;10.75;;
34673;SDS011;20879;55.668;37.858;2022-12-22T12:17:53;18.38;;;9.02;;
34673;SDS011;20879;55.668;37.858;2022-12-22T12:20:49;17.17;;;10.82;;
34673;SDS011;20879;55.668;37.858;2022-12-22T12:23:32;20.08;;;11.23;;
34673;SDS011;20879;55.668;37.858;2022-12-22T12:26:20;17.02;;;10.88;;
34673;SDS011;20879;55.668;37.858;2022-12-22T12:29:06;18.27;;;10.80;;
34673;SDS011;20879;55.668;37.858;2022-12-22T12:31:44;17.98;;;11.00;;
34673;SDS011;20879;55.668;37.858;2022-12-22T12:34:28;17.00;;;10.38;;
34673;SDS011;20879;55.668;37.858;2022-12-22T12:37:05;19.75;;;10.70;;
34673;SDS011;20879;55.668;37.858;2022-12-22T12:39:53;15.70;;;9.55;;
34673;SDS011;20879;55.668;37.858;2022-12-22T12:42:36;16.33;;;9.90;;
34673;SDS011;20879;55.668;37.858;2022-12-22T12:57:23;16.13;;;9.75;;
34673;SDS011;20879;55.668;37.858;2022-12-22T12:59:59;18.58;;;9.80;;
34673;SDS011;20879;55.668;37.858;2022-12-22T13:02:30;21.42;;;11.00;;
34673;SDS011;20879;55.668;37.858;2022-12-22T13:17:32;15.57;;;10.40;;
34673;SDS011;20879;55.668;37.858;2022-12-22T13:20:10;18.05;;;10.57;;
34673;SDS011;20879;55.668;37.858;2022-12-22T13:22:42;17.00;;;10.25;;
34673;SDS011;20879;55.668;37.858;2022-12-22T13:25:13;17.15;;;10.07;;
34673;SDS011;20879;55.668;37.858;2022-12-22T13:27:52;16.55;;;10.38;;
34673;SDS011;20879;55.668;37.858;2022-12-22T13:30:25;16.35;;;9.63;;
34673;SDS011;20879;55.668;37.858;2022-12-22T13:32:58;14.30;;;8.73;;
34673;SDS011;20879;55.668;37.858;2022-12-22T13:35:35;14.07;;;8.90;;
34673;SDS011;20879;55.668;37.858;2022-12-22T13:38:27;14.52;;;7.93;;
34673;SDS011;20879;55.668;37.858;2022-12-22T13:40:58;17.00;;;8.77;;
34673;SDS011;20879;55.668;37.858;2022-12-22T13:43:32;14.27;;;8.45;;
34673;SDS011;20879;55.668;37.858;2022-12-22T13:46:14;12.02;;;7.72;;
34673;SDS011;20879;55.668;37.858;2022-12-22T13:48:58;12.05;;;7.35;;
34673;SDS011;20879;55.668;37.858;2022-12-22T13:51:30;15.05;;;8.57;;
34673;SDS011;20879;55.668;37.858;2022-12-22T13:54:11;13.10;;;8.25;;
34673;SDS011;20879;55.668;37.858;2022-12-22T13:56:51;12.77;;;8.37;;
34673;SDS011;20879;55.668;37.858;2022-12-22T13:59:29;12.13;;;7.03;;
34673;SDS011;20879;55.668;37.858;2022-12-22T14:02:12;15.02;;;8.02;;
34673;SDS011;20879;55.668;37.858;2022-12-22T14:04:43;15.32;;;7.78;;
34673;SDS011;20879;55.668;37.858;2022-12-22T14:07:30;13.95;;;7.63;;
34673;SDS011;20879;55.668;37.858;2022-12-22T14:09:59;14.07;;;8.07;;
34673;SDS011;20879;55.668;37.858;2022-12-22T14:12:34;15.30;;;8.02;;
34673;SDS011;20879;55.668;37.858;2022-12-22T14:15:15;12.52;;;7.65;;
34673;SDS011;20879;55.668;37.858;2022-12-22T14:17:52;13.43;;;8.25;;
34673;SDS011;20879;55.668;37.858;2022-12-22T14:20:27;11.80;;;6.47;;
34673;SDS011;20879;55.668;37.858;2022-12-22T14:23:01;11.75;;;7.65;;
34673;SDS011;20879;55.668;37.858;2022-12-22T14:25:35;12.90;;;7.53;;
34673;SDS011;20879;55.668;37.858;2022-12-22T14:28:13;13.20;;;7.78;;
34673;SDS011;20879;55.668;37.858;2022-12-22T14:30:53;12.55;;;7.13;;
34673;SDS011;20879;55.668;37.858;2022-12-22T14:33:30;12.70;;;7.53;;
34673;SDS011;20879;55.668;37.858;2022-12-22T14:36:04;12.00;;;7.63;;
34673;SDS011;20879;55.668;37.858;2022-12-22T14:38:43;8.48;;;5.97;;
34673;SDS011;20879;55.668;37.858;2022-12-22T14:41:20;12.20;;;6.97;;
34673;SDS011;20879;55.668;37.858;2022-12-22T14:44:15;10.45;;;6.53;;
34673;SDS011;20879;55.668;37.858;2022-12-22T14:47:05;10.73;;;6.82;;
34673;SDS011;20879;55.668;37.858;2022-12-22T14:49:48;10.15;;;6.75;;
34673;SDS011;20879;55.668;37.858;2022-12-22T14:52:21;11.98;;;7.40;;
34673;SDS011;20879;55.668;37.858;2022-12-22T14:54:54;13.27;;;6.88;;
34673;SDS011;20879;55.668;37.858;2022-12-22T14:57:27;11.75;;;6.90;;
34673;SDS011;20879;55.668;37.858;2022-12-22T15:00:02;12.80;;;7.90;;
34673;SDS011;20879;55.668;37.858;2022-12-22T15:02:36;11.88;;;8.25;;
34673;SDS011;20879;55.668;37.858;2022-12-22T15:05:07;9.18;;;6.07;;
34673;SDS011;20879;55.668;37.858;2022-12-22T15:07:48;8.95;;;5.50;;
34673;SDS011;20879;55.668;37.858;2022-12-22T15:10:36;11.40;;;7.15;;
34673;SDS011;20879;55.668;37.858;2022-12-22T15:13:20;11.57;;;7.32;;
34673;SDS011;20879;55.668;37.858;2022-12-22T15:15:51;15.52;;;7.85;;
34673;SDS011;20879;55.668;37.858;2022-12-22T15:18:23;14.88;;;7.68;;
34673;SDS011;20879;55.668;37.858;2022-12-22T15:20:55;14.98;;;8.50;;
34673;SDS011;20879;55.668;37.858;2022-12-22T15:23:25;13.95;;;8.63;;
34673;SDS011;20879;55.668;37.858;2022-12-22T15:25:54;11.88;;;7.55;;
34673;SDS011;20879;55.668;37.858;2022-12-22T15:28:30;12.85;;;7.55;;
34673;SDS011;20879;55.668;37.858;2022-12-22T15:31:05;9.00;;;6.20;;
34673;SDS011;20879;55.668;37.858;2022-12-22T15:33:43;13.05;;;8.35;;
34673;SDS011;20879;55.668;37.858;2022-12-22T15:36:18;15.13;;;8.63;;
34673;SDS011;20879;55.668;37.858;2022-12-22T15:38:48;13.63;;;5.97;;
34673;SDS011;20879;55.668;37.858;2022-12-22T15:41:17;13.30;;;8.00;;
34673;SDS011;20879;55.668;37.858;2022-12-22T15:43:53;12.85;;;8.30;;
34673;SDS011;20879;55.668;37.858;2022-12-22T15:46:25;14.60;;;8.50;;
34673;SDS011;20879;55.668;37.858;2022-12-22T15:48:56;13.68;;;8.27;;
34673;SDS011;20879;55.668;37.858;2022-12-22T15:51:26;15.52;;;9.43;;
34673;SDS011;20879;55.668;37.858;2022-12-22T15:53:58;16.05;;;8.13;;
34673;SDS011;20879;55.668;37.858;2022-12-22T15:56:33;13.88;;;8.43;;
34673;SDS011;20879;55.668;37.858;2022-12-22T15:59:03;11.77;;;7.30;;
34673;SDS011;20879;55.668;37.858;2022-12-22T16:01:33;13.23;;;8.63;;
34673;SDS011;20879;55.668;37.858;2022-12-22T16:04:04;12.43;;;8.65;;
34673;SDS011;20879;55.668;37.858;2022-12-22T16:06:38;12.05;;;8.38;;
34673;SDS011;20879;55.668;37.858;2022-12-22T16:09:11;14.35;;;9.00;;
34673;SDS011;20879;55.668;37.858;2022-12-22T16:11:47;14.65;;;9.05;;
34673;SDS011;20879;55.668;37.858;2022-12-22T16:14:17;15.27;;;8.70;;
34673;SDS011;20879;55.668;37.858;2022-12-22T16:16:52;14.15;;;9.02;;
34673;SDS011;20879;55.668;37.858;2022-12-22T16:19:24;15.10;;;8.30;;
34673;SDS011;20879;55.668;37.858;2022-12-22T16:24:24;13.60;;;8.02;;
34673;SDS011;20879;55.668;37.858;2022-12-22T16:26:55;13.00;;;7.53;;
34673;SDS011;20879;55.668;37.858;2022-12-22T16:29:26;14.00;;;8.00;;